Time;durP1;ratioP1;P1;durP2;ratioP2;P2;SDS_P1;SDS_P2;PMS_P1;PMS_P2;Temp;Humidity;BMP_temperature;BMP_pressure;BME280_temperature;BME280_humidity;BME280_pressure;Samples;Min_cycle;Max_cycle;Signal;HPM_P1;HPM_P2
2024/02/21 00:00:07;;;;;;;16.50;8.65;;;;;;;8.74;88.96;99119.56;5162374;23;20181;-90
2024/02/21 00:02:10;;;;;;;14.80;8.48;;;;;;;8.76;89.97;99115.13;5137223;23;20183;-90
2024/02/21 00:04:14;;;;;;;12.05;7.93;;;;;;;8.75;88.83;99116.03;5136782;23;20193;-90
2024/02/21 00:06:17;;;;;;;14.68;8.32;;;;;;;8.77;89.84;99114.22;5161325;23;20609;-89
2024/02/21 00:08:20;;;;;;;13.95;8.07;;;;;;;8.75;90.08;99110.84;5137244;23;20201;-92
2024/02/21 00:10:24;;;;;;;13.55;7.60;;;;;;;8.72;89.80;99109.22;5136597;23;20202;-88
2024/02/21 00:12:28;;;;;;;12.55;6.80;;;;;;;8.70;89.25;99107.59;5190863;22;20563;-91
2024/02/21 00:14:33;;;;;;;12.80;7.53;;;;;;;8.68;90.05;99107.66;5189049;22;20205;-91
2024/02/21 00:16:36;;;;;;;17.13;7.38;;;;;;;8.69;90.37;99108.50;5188467;22;20168;-90
2024/02/21 00:18:39;;;;;;;12.40;7.30;;;;;;;8.68;89.75;99104.25;5137886;23;20189;-92
2024/02/21 00:20:43;;;;;;;13.13;7.50;;;;;;;8.67;89.33;99100.78;5161738;23;20595;-90
2024/02/21 00:22:45;;;;;;;15.40;7.00;;;;;;;8.65;89.26;99094.81;5162153;23;20205;-87
2024/02/21 00:24:49;;;;;;;12.63;7.20;;;;;;;8.64;89.16;99081.88;5164124;23;20233;-90
2024/02/21 00:26:51;;;;;;;9.93;7.30;;;;;;;8.62;89.81;99081.09;5161547;23;20224;-82
2024/02/21 00:28:55;;;;;;;12.30;6.53;;;;;;;8.63;89.29;99077.56;5137581;23;20231;-83
2024/02/21 00:31:00;;;;;;;14.93;7.82;;;;;;;8.63;90.54;99085.38;5159941;23;20177;-83
2024/02/21 00:33:03;;;;;;;10.65;6.63;;;;;;;8.60;90.66;99068.19;5137280;23;20281;-82
2024/02/21 00:35:07;;;;;;;10.93;7.22;;;;;;;8.56;89.71;99069.22;5137335;23;20268;-82
2024/02/21 00:37:10;;;;;;;10.13;7.22;;;;;;;8.53;90.37;99058.94;5161830;23;20201;-83
2024/02/21 00:39:13;;;;;;;13.70;8.52;;;;;;;8.53;91.04;99060.72;5136985;23;20902;-82
2024/02/21 00:41:17;;;;;;;12.50;6.88;;;;;;;8.53;89.47;99065.91;5135626;23;20180;-83
2024/02/21 00:43:23;;;;;;;14.50;7.27;;;;;;;8.56;90.85;99064.03;5188409;22;20169;-83
2024/02/21 00:45:27;;;;;;;12.18;6.82;;;;;;;8.60;90.89;99067.31;5161651;23;20944;-82
2024/02/21 00:47:31;;;;;;;11.40;7.60;;;;;;;8.61;89.65;99061.22;5188195;22;20224;-83
2024/02/21 00:49:35;;;;;;;11.60;7.40;;;;;;;8.63;90.74;99061.97;5138019;23;21175;-82
2024/02/21 00:51:38;;;;;;;13.00;7.63;;;;;;;8.61;89.68;99056.84;5161091;23;20609;-82
2024/02/21 00:53:41;;;;;;;14.27;7.57;;;;;;;8.64;91.06;99054.09;5161302;23;20284;-83
2024/02/21 00:55:44;;;;;;;13.00;7.00;;;;;;;8.67;90.57;99051.38;5160263;23;20231;-82
2024/02/21 00:57:47;;;;;;;10.82;6.72;;;;;;;8.69;90.72;99053.91;5187913;22;20183;-83
2024/02/21 00:59:51;;;;;;;13.38;7.50;;;;;;;8.72;90.15;99049.44;5137010;23;20247;-82
2024/02/21 01:01:54;;;;;;;10.57;6.40;;;;;;;8.74;91.04;99055.38;5135238;23;20181;-82
2024/02/21 01:03:58;;;;;;;14.07;6.18;;;;;;;8.77;90.75;99060.44;5161184;23;20185;-82
2024/02/21 01:06:01;;;;;;;13.60;6.45;;;;;;;8.80;90.27;99047.31;5135622;23;20240;-82
2024/02/21 01:08:06;;;;;;;9.98;6.28;;;;;;;8.84;90.60;99046.25;5161226;23;20197;-82
2024/02/21 01:10:10;;;;;;;9.48;5.90;;;;;;;8.87;89.83;99040.91;5162388;23;20185;-83
2024/02/21 01:12:13;;;;;;;17.90;6.50;;;;;;;8.88;90.11;99039.16;5136099;23;20229;-83
2024/02/21 01:14:17;;;;;;;11.90;6.10;;;;;;;8.92;90.75;99035.50;5162468;23;20584;-82
2024/02/21 01:16:19;;;;;;;10.63;5.80;;;;;;;8.91;90.57;99039.00;5135817;23;20178;-83
2024/02/21 01:18:22;;;;;;;12.53;6.37;;;;;;;8.92;89.87;99036.34;5136167;23;20740;-82
2024/02/21 01:20:27;;;;;;;13.02;7.15;;;;;;;8.93;89.77;99028.47;5137371;23;20592;-82
2024/02/21 01:22:30;;;;;;;10.95;6.68;;;;;;;8.91;91.32;99024.25;5188516;22;20172;-82
2024/02/21 01:24:33;;;;;;;12.35;6.50;;;;;;;8.90;91.24;99026.91;5161150;23;20211;-82
2024/02/21 01:26:37;;;;;;;12.50;6.97;;;;;;;8.87;90.97;99008.84;5161273;23;20174;-82
2024/02/21 01:28:41;;;;;;;11.23;6.50;;;;;;;8.85;91.01;99011.53;5162060;23;20192;-83
2024/02/21 01:30:44;;;;;;;12.47;6.70;;;;;;;8.88;91.09;99011.38;5161683;23;20177;-82
2024/02/21 01:32:47;;;;;;;9.35;6.22;;;;;;;8.92;92.44;99007.72;5136490;23;20616;-83
2024/02/21 01:34:50;;;;;;;14.07;6.45;;;;;;;8.91;92.08;99000.00;5161843;23;20175;-82
2024/02/21 01:36:55;;;;;;;13.45;6.68;;;;;;;8.93;91.29;99005.06;5160054;23;20176;-83
2024/02/21 01:38:57;;;;;;;7.82;5.68;;;;;;;8.96;90.90;99010.13;5136042;23;20185;-82
2024/02/21 01:41:00;;;;;;;10.23;5.53;;;;;;;9.02;90.92;99001.16;5189492;22;20600;-83
2024/02/21 01:43:04;;;;;;;8.87;5.50;;;;;;;9.02;90.18;98996.81;5162597;23;20184;-82
2024/02/21 01:45:07;;;;;;;11.23;6.38;;;;;;;9.01;91.01;99002.94;5136047;23;20581;-82
2024/02/21 01:47:13;;;;;;;11.32;6.75;;;;;;;8.98;91.66;98997.88;5135003;23;20194;-83
2024/02/21 01:49:17;;;;;;;10.45;6.68;;;;;;;8.96;90.30;98991.91;5162302;23;20212;-82
2024/02/21 01:51:20;;;;;;;11.63;6.07;;;;;;;8.92;91.03;98986.09;5135692;23;20178;-84
2024/02/21 01:53:29;;;;;;;9.20;7.27;;;;;;;8.89;91.76;98981.03;5162720;23;20610;-82
2024/02/21 01:55:32;;;;;;;9.50;6.70;;;;;;;8.89;91.98;98981.03;5136658;23;20651;-81
2024/02/21 01:57:36;;;;;;;10.82;7.10;;;;;;;8.90;91.62;98978.34;5161296;23;20631;-83
2024/02/21 01:59:43;;;;;;;10.63;6.03;;;;;;;8.92;91.20;98973.91;5136190;23;20261;-83
2024/02/21 02:01:46;;;;;;;11.80;6.17;;;;;;;8.92;90.44;98973.91;5161087;23;20264;-82
2024/02/21 02:03:50;;;;;;;12.27;5.57;;;;;;;8.92;90.45;98966.94;5189045;22;20576;-83
2024/02/21 02:05:54;;;;;;;13.10;6.13;;;;;;;8.94;91.42;98966.88;5136492;23;20627;-82
2024/02/21 02:07:56;;;;;;;13.73;5.77;;;;;;;8.94;91.28;98964.25;5187551;22;20224;-83
2024/02/21 02:10:00;;;;;;;9.95;5.90;;;;;;;8.94;91.08;98959.06;5189150;22;21074;-82
2024/02/21 02:12:04;;;;;;;12.88;6.05;;;;;;;8.93;91.17;98952.19;5161362;23;20180;-82
2024/02/21 02:14:07;;;;;;;9.65;5.97;;;;;;;8.93;91.04;98958.22;5187163;22;20851;-82
2024/02/21 02:16:11;;;;;;;9.43;5.55;;;;;;;8.92;91.37;98958.31;5161100;23;20705;-82
2024/02/21 02:18:15;;;;;;;10.98;5.25;;;;;;;8.95;90.59;98955.56;5161980;23;20181;-82
2024/02/21 02:20:19;;;;;;;6.47;4.60;;;;;;;8.96;90.74;98947.69;5161547;23;20181;-82
2024/02/21 02:22:24;;;;;;;12.95;5.00;;;;;;;8.96;91.33;98942.47;5160926;23;20174;-82
2024/02/21 02:24:29;;;;;;;11.30;6.68;;;;;;;8.97;90.40;98930.31;5136034;23;20171;-82
2024/02/21 02:26:32;;;;;;;8.50;4.70;;;;;;;8.97;90.44;98938.09;5159457;23;20280;-83
2024/02/21 02:28:34;;;;;;;8.33;5.23;;;;;;;8.96;90.14;98926.03;5136325;23;20648;-83
2024/02/21 02:30:37;;;;;;;13.10;5.83;;;;;;;8.95;89.83;98922.56;5159997;23;20671;-83
2024/02/21 02:32:44;;;;;;;8.10;5.50;;;;;;;8.95;90.42;98925.19;5138236;23;20621;-82
2024/02/21 02:34:47;;;;;;;10.45;5.40;;;;;;;8.98;90.51;98919.81;5163171;23;20185;-83
2024/02/21 02:36:51;;;;;;;9.85;5.57;;;;;;;8.96;91.33;98924.28;5162598;23;20189;-83
2024/02/21 02:38:53;;;;;;;9.00;5.30;;;;;;;8.92;91.56;98924.50;5162888;23;20201;-84
2024/02/21 02:40:57;;;;;;;8.73;5.03;;;;;;;8.92;90.41;98928.84;5138084;23;20182;-82
2024/02/21 02:43:01;;;;;;;10.27;5.20;;;;;;;8.94;90.24;98922.66;5137368;23;20580;-82
2024/02/21 02:45:04;;;;;;;12.35;5.32;;;;;;;8.97;91.40;98915.53;5162738;23;20203;-83
2024/02/21 02:47:08;;;;;;;9.10;5.10;;;;;;;9.05;91.84;98909.94;5189640;22;20624;-83
2024/02/21 02:49:11;;;;;;;9.45;4.97;;;;;;;9.05;91.81;98910.81;5138108;23;20260;-82
2024/02/21 02:51:14;;;;;;;11.05;5.75;;;;;;;9.03;90.61;98907.41;5163274;23;20268;-82
2024/02/21 02:53:18;;;;;;;11.63;5.43;;;;;;;9.02;90.60;98912.69;5162675;23;20192;-83
2024/02/21 02:55:21;;;;;;;10.00;5.70;;;;;;;9.04;90.06;98918.69;5138299;23;20260;-82
2024/02/21 02:57:26;;;;;;;12.50;5.70;;;;;;;9.04;90.41;98910.88;5136715;23;21150;-82
2024/02/21 02:59:29;;;;;;;8.85;4.95;;;;;;;9.05;92.51;98907.34;5138202;23;20182;-82
2024/02/21 03:01:34;;;;;;;6.57;4.75;;;;;;;9.04;92.48;98903.09;5189607;22;20165;-82
2024/02/21 03:03:37;;;;;;;10.77;5.40;;;;;;;9.02;92.85;98897.94;5138593;23;20217;-82
2024/02/21 03:05:41;;;;;;;8.57;5.25;;;;;;;9.03;91.95;98890.97;5163331;23;20201;-82
2024/02/21 03:07:45;;;;;;;10.05;7.00;;;;;;;9.02;93.00;98895.34;5161870;23;20208;-82
2024/02/21 03:09:49;;;;;;;9.30;5.75;;;;;;;9.06;92.11;98907.28;5162029;23;20180;-81
2024/02/21 03:11:56;;;;;;;10.53;5.90;;;;;;;8.96;92.54;98900.84;5162143;23;20521;-83
2024/02/21 03:14:01;;;;;;;12.90;6.15;;;;;;;8.93;93.54;98905.38;5161980;23;21188;-83
2024/02/21 03:16:05;;;;;;;12.65;6.10;;;;;;;8.89;91.69;98908.19;5189050;22;20169;-82
2024/02/21 03:18:08;;;;;;;15.55;6.25;;;;;;;8.83;93.29;98908.50;5189363;22;20621;-83
2024/02/21 03:20:12;;;;;;;9.13;5.80;;;;;;;8.80;93.10;98903.44;5163052;23;20174;-82
2024/02/21 03:22:16;;;;;;;11.27;6.20;;;;;;;8.81;92.38;98899.91;5190386;22;20169;-82
2024/02/21 03:24:19;;;;;;;8.80;5.82;;;;;;;8.80;93.48;98903.44;5138491;23;20174;-82
2024/02/21 03:26:23;;;;;;;13.13;5.75;;;;;;;8.80;93.06;98904.28;5162332;23;20183;-83
2024/02/21 03:28:26;;;;;;;12.18;5.88;;;;;;;8.80;93.83;98899.06;5161677;23;20310;-83
2024/02/21 03:30:31;;;;;;;9.73;6.03;;;;;;;8.78;93.83;98898.31;5188926;22;20177;-82
2024/02/21 03:32:34;;;;;;;9.50;5.70;;;;;;;8.78;94.76;98881.84;5189699;22;20177;-82
2024/02/21 03:34:38;;;;;;;8.93;5.72;;;;;;;8.75;95.03;98875.06;5136987;23;20217;-83
2024/02/21 03:36:41;;;;;;;10.20;5.97;;;;;;;8.72;95.29;98866.53;5188523;22;20219;-83
2024/02/21 03:38:44;;;;;;;11.63;5.38;;;;;;;8.72;94.00;98869.13;5162024;23;20219;-82
2024/02/21 03:40:48;;;;;;;11.40;6.45;;;;;;;8.69;93.79;98864.09;5138060;23;20265;-82
2024/02/21 03:42:51;;;;;;;9.85;5.38;;;;;;;8.70;93.70;98874.41;5189713;22;20172;-82
2024/02/21 03:44:54;;;;;;;9.40;5.45;;;;;;;8.71;94.39;98872.69;5136998;23;20179;-83
2024/02/21 03:47:00;;;;;;;14.07;5.05;;;;;;;8.70;94.18;98874.41;5188792;22;20558;-82
2024/02/21 03:49:03;;;;;;;12.80;5.43;;;;;;;8.70;94.24;98876.19;5162901;23;20192;-83
2024/02/21 03:51:05;;;;;;;10.15;5.25;;;;;;;8.70;94.20;98868.38;5136354;23;20225;-82
2024/02/21 03:53:09;;;;;;;11.57;5.35;;;;;;;8.70;94.35;98870.97;5189609;22;20208;-82
2024/02/21 03:55:12;;;;;;;12.00;5.40;;;;;;;8.70;93.54;98866.63;5162470;23;20180;-83
2024/02/21 03:57:15;;;;;;;8.20;5.50;;;;;;;8.69;94.00;98861.50;5187384;22;20501;-90
2024/02/21 03:59:19;;;;;;;6.90;4.80;;;;;;;8.68;93.95;98862.44;5161036;23;20580;-91
2024/02/21 04:01:22;;;;;;;10.43;5.22;;;;;;;8.66;94.84;98848.63;5136275;23;20683;-90
2024/02/21 04:03:27;;;;;;;8.82;4.85;;;;;;;8.58;94.21;98851.59;5189930;22;20507;-87
2024/02/21 04:05:33;;;;;;;9.02;4.88;;;;;;;8.58;94.97;98854.22;5138068;23;20197;-89
2024/02/21 04:07:37;;;;;;;8.48;4.78;;;;;;;8.57;95.00;98865.53;5186935;22;20275;-90
2024/02/21 04:09:40;;;;;;;9.13;4.93;;;;;;;8.57;94.52;98855.16;5137160;23;20526;-88
2024/02/21 04:11:43;;;;;;;9.30;5.35;;;;;;;8.60;95.01;98855.00;5163182;23;20183;-91
2024/02/21 04:13:48;;;;;;;8.75;5.20;;;;;;;8.61;94.76;98850.63;5188545;22;20168;-91
2024/02/21 04:15:51;;;;;;;8.18;4.97;;;;;;;8.61;94.56;98855.81;5136963;23;20205;-90
2024/02/21 04:17:54;;;;;;;8.25;5.03;;;;;;;8.61;95.36;98851.47;5162696;23;20201;-90
2024/02/21 04:20:05;;;;;;;13.95;5.00;;;;;;;8.63;94.37;98843.59;5162507;23;20170;-90
2024/02/21 04:22:09;;;;;;;7.80;4.57;;;;;;;8.62;95.05;98840.16;5138107;23;20536;-90
2024/02/21 04:24:12;;;;;;;6.53;4.70;;;;;;;8.63;94.48;98838.38;5160943;23;20586;-90
2024/02/21 04:26:15;;;;;;;12.60;5.05;;;;;;;8.65;95.46;98833.97;5162369;23;21073;-87
2024/02/21 04:28:18;;;;;;;13.95;5.07;;;;;;;8.63;95.36;98828.00;5189543;22;20205;-89
2024/02/21 04:30:22;;;;;;;12.70;5.20;;;;;;;8.59;94.81;98811.72;5161243;23;20204;-89
2024/02/21 04:32:27;;;;;;;8.68;4.93;;;;;;;8.53;93.25;98814.59;5137557;23;20580;-89
2024/02/21 04:34:31;;;;;;;8.07;4.93;;;;;;;8.54;94.40;98810.28;5163242;23;20506;-89
2024/02/21 04:36:36;;;;;;;9.45;4.30;;;;;;;8.54;93.54;98818.91;5188458;22;20173;-90
2024/02/21 04:38:39;;;;;;;9.27;4.50;;;;;;;8.57;94.83;98817.91;5136030;23;20996;-89
2024/02/21 04:40:42;;;;;;;7.40;4.65;;;;;;;8.59;94.22;98816.91;5162016;23;20298;-90
2024/02/21 04:42:45;;;;;;;9.38;5.00;;;;;;;8.60;93.77;98810.81;5162333;23;20181;-88
2024/02/21 04:44:48;;;;;;;8.13;4.45;;;;;;;8.61;93.99;98807.25;5136790;23;20178;-90
2024/02/21 04:46:51;;;;;;;5.53;4.30;;;;;;;8.62;92.90;98810.72;5160925;23;20582;-89
2024/02/21 04:48:55;;;;;;;8.30;4.63;;;;;;;8.61;93.03;98809.88;5161407;23;20182;-91
2024/02/21 04:50:58;;;;;;;9.00;4.93;;;;;;;8.58;93.12;98809.19;5136044;23;20200;-89
2024/02/21 04:53:03;;;;;;;11.77;5.15;;;;;;;8.53;93.15;98805.97;5163036;23;20227;-91
2024/02/21 04:55:07;;;;;;;16.98;7.57;;;;;;;8.47;93.52;98801.91;5161723;23;20178;-89
2024/02/21 04:57:11;;;;;;;13.48;7.72;;;;;;;8.44;93.97;98806.41;5162000;23;20177;-90
2024/02/21 04:59:14;;;;;;;10.85;6.70;;;;;;;8.44;94.72;98821.19;5160514;23;20170;-90
2024/02/21 05:01:17;;;;;;;8.40;5.63;;;;;;;8.41;94.08;98810.94;5136955;23;20188;-86
2024/02/21 05:03:21;;;;;;;9.88;5.68;;;;;;;8.39;95.17;98820.53;5161729;23;20919;-90
2024/02/21 05:05:24;;;;;;;9.52;5.72;;;;;;;8.36;95.68;98823.28;5161254;23;20498;-89
2024/02/21 05:07:27;;;;;;;9.90;5.20;;;;;;;8.32;94.85;98819.16;5136171;23;20264;-82
2024/02/21 05:09:32;;;;;;;8.35;5.20;;;;;;;8.31;94.10;98831.31;5135215;23;20224;-82
2024/02/21 05:11:34;;;;;;;11.88;6.00;;;;;;;8.25;94.45;98823.78;5158794;23;20182;-83
2024/02/21 05:13:37;;;;;;;13.43;6.32;;;;;;;8.21;94.98;98814.47;5186535;22;20531;-82
2024/02/21 05:15:40;;;;;;;10.65;5.90;;;;;;;8.17;94.24;98807.72;5136652;23;20217;-83
2024/02/21 05:17:43;;;;;;;6.50;5.28;;;;;;;8.11;93.91;98808.03;5159006;23;20296;-82
2024/02/21 05:19:47;;;;;;;9.63;5.97;;;;;;;8.07;93.67;98805.59;5161822;23;20669;-83
2024/02/21 05:21:50;;;;;;;10.80;5.50;;;;;;;8.03;94.93;98801.50;5136825;23;20185;-82
2024/02/21 05:23:53;;;;;;;9.32;4.53;;;;;;;8.03;94.49;98796.28;5161433;23;20609;-82
2024/02/21 05:25:58;;;;;;;9.90;4.80;;;;;;;7.99;94.72;98792.97;5161450;23;20178;-83
2024/02/21 05:28:03;;;;;;;10.40;5.70;;;;;;;7.96;94.59;98783.66;5161775;23;20646;-83
2024/02/21 05:30:07;;;;;;;10.35;5.40;;;;;;;7.93;93.42;98770.81;5160657;23;21182;-83
2024/02/21 05:32:10;;;;;;;13.23;5.50;;;;;;;7.92;93.69;98761.34;5137050;23;20178;-82
2024/02/21 05:34:13;;;;;;;11.57;5.30;;;;;;;7.89;94.31;98749.34;5134921;23;20569;-83
2024/02/21 05:36:16;;;;;;;10.10;5.15;;;;;;;7.88;93.75;98746.81;5136042;23;20190;-81
2024/02/21 05:38:19;;;;;;;11.13;5.30;;;;;;;7.87;94.47;98753.78;5161303;23;20177;-82
2024/02/21 05:40:23;;;;;;;10.88;4.80;;;;;;;7.84;94.73;98756.50;5186514;22;20538;-84
2024/02/21 05:42:26;;;;;;;11.10;5.10;;;;;;;7.76;94.41;98750.00;5187712;22;20869;-85
2024/02/21 05:44:30;;;;;;;10.90;5.45;;;;;;;7.70;93.06;98745.09;5133391;23;20708;-82
2024/02/21 05:46:32;;;;;;;10.40;5.03;;;;;;;7.66;94.20;98753.94;5187706;22;20180;-83
2024/02/21 05:48:36;;;;;;;11.05;4.93;;;;;;;7.64;93.30;98755.78;5162612;23;20166;-81
2024/02/21 05:50:42;;;;;;;8.05;4.07;;;;;;;7.60;93.00;98755.03;5189677;22;20249;-81
2024/02/21 05:52:45;;;;;;;9.00;4.68;;;;;;;7.54;91.77;98742.34;5163418;23;20267;-81
2024/02/21 05:54:50;;;;;;;8.50;4.55;;;;;;;7.52;92.86;98745.94;5163251;23;20222;-81
2024/02/21 05:56:53;;;;;;;9.00;4.70;;;;;;;7.52;93.66;98748.53;5136648;23;20220;-80
2024/02/21 05:58:57;;;;;;;10.57;5.43;;;;;;;7.50;94.26;98742.56;5138114;23;20245;-80
2024/02/21 06:01:01;;;;;;;9.98;4.88;;;;;;;7.51;94.68;98742.50;5163118;23;20178;-80
2024/02/21 06:03:05;;;;;;;7.93;5.00;;;;;;;7.50;94.40;98729.59;5163292;23;20227;-81
2024/02/21 06:05:09;;;;;;;8.88;5.43;;;;;;;7.50;93.51;98732.19;5163278;23;20169;-80
2024/02/21 06:07:13;;;;;;;6.78;5.53;;;;;;;7.50;94.04;98734.78;5158140;23;20231;-79
2024/02/21 06:09:15;;;;;;;14.70;6.70;;;;;;;7.53;94.00;98737.22;5136259;23;20181;-78
2024/02/21 06:11:18;;;;;;;11.60;5.80;;;;;;;7.56;94.41;98731.91;5189368;22;20710;-80
2024/02/21 06:13:24;;;;;;;9.02;5.10;;;;;;;7.56;94.43;98731.91;5191214;22;20184;-80
2024/02/21 06:15:29;;;;;;;10.63;5.60;;;;;;;7.59;93.91;98742.13;5189425;22;20207;-80
2024/02/21 06:17:33;;;;;;;8.95;5.30;;;;;;;7.58;93.00;98748.25;5137571;23;20193;-87
2024/02/21 06:19:36;;;;;;;8.00;6.00;;;;;;;7.54;93.04;98742.34;5139241;23;20309;-86
2024/02/21 06:21:40;;;;;;;8.07;5.20;;;;;;;7.50;93.11;98740.84;5138354;23;20174;-88
2024/02/21 06:23:43;;;;;;;7.13;5.22;;;;;;;7.48;93.30;98731.41;5187189;22;20200;-88
2024/02/21 06:25:47;;;;;;;11.48;6.32;;;;;;;7.47;93.20;98741.88;5161217;23;20597;-86
2024/02/21 06:27:50;;;;;;;8.13;4.72;;;;;;;7.48;92.79;98746.16;5187878;22;20180;-88
2024/02/21 06:29:54;;;;;;;12.20;5.03;;;;;;;7.45;94.31;98741.94;5137758;23;20184;-88
2024/02/21 06:31:58;;;;;;;9.55;5.20;;;;;;;7.44;94.02;98740.25;5164078;23;20185;-88
2024/02/21 06:34:02;;;;;;;9.75;5.68;;;;;;;7.43;93.38;98735.13;5164117;23;20264;-87
2024/02/21 06:36:06;;;;;;;9.70;6.75;;;;;;;7.40;92.67;98728.34;5188860;22;20200;-86
2024/02/21 06:38:09;;;;;;;10.68;7.00;;;;;;;7.39;93.85;98731.00;5162426;23;20179;-86
2024/02/21 06:40:13;;;;;;;12.90;7.50;;;;;;;7.41;92.80;98732.59;5162677;23;20269;-87
2024/02/21 06:42:16;;;;;;;11.70;6.22;;;;;;;7.44;94.56;98745.44;5164126;23;20425;-88
2024/02/21 06:44:19;;;;;;;9.00;6.50;;;;;;;7.51;93.71;98736.47;5162716;23;20331;-88
2024/02/21 06:46:24;;;;;;;10.05;5.88;;;;;;;7.57;93.63;98746.56;5188965;22;20176;-87
2024/02/21 06:48:28;;;;;;;9.82;5.25;;;;;;;7.65;94.20;98755.69;5138008;23;20236;-89
2024/02/21 06:50:32;;;;;;;10.40;6.13;;;;;;;7.70;92.52;98752.91;5139870;23;20202;-90
2024/02/21 06:52:35;;;;;;;11.20;6.32;;;;;;;7.77;94.07;98744.75;5137828;23;20206;-87
2024/02/21 06:54:39;;;;;;;11.82;7.45;;;;;;;7.81;92.78;98751.47;5136661;23;20855;-88
2024/02/21 06:56:42;;;;;;;9.70;6.10;;;;;;;7.76;92.95;98744.81;5190492;22;20254;-88
2024/02/21 06:58:45;;;;;;;10.13;6.20;;;;;;;7.79;92.53;98742.09;5139317;23;20174;-88
2024/02/21 07:00:48;;;;;;;9.20;5.38;;;;;;;7.89;93.10;98738.13;5162785;23;20200;-88
2024/02/21 07:02:51;;;;;;;9.00;5.90;;;;;;;7.96;92.09;98743.78;5163522;23;20186;-88
2024/02/21 07:04:58;;;;;;;15.40;5.93;;;;;;;8.04;93.60;98744.28;5191625;22;20180;-86
2024/02/21 07:07:01;;;;;;;6.38;4.90;;;;;;;8.11;93.94;98737.88;5137825;23;20204;-88
2024/02/21 07:09:05;;;;;;;9.00;5.45;;;;;;;8.21;91.16;98738.28;5139766;23;20257;-87
2024/02/21 07:11:08;;;;;;;11.05;5.90;;;;;;;8.20;91.37;98739.22;5164874;23;20284;-87
2024/02/21 07:13:11;;;;;;;10.35;6.45;;;;;;;8.16;91.31;98732.47;5138563;23;20178;-87
2024/02/21 07:15:14;;;;;;;10.95;6.00;;;;;;;8.20;90.88;98740.03;5164229;23;20177;-89
2024/02/21 07:17:18;;;;;;;9.43;5.93;;;;;;;8.28;91.28;98742.28;5138011;23;20262;-87
2024/02/21 07:19:21;;;;;;;10.10;5.78;;;;;;;8.38;91.32;98733.94;5139038;23;20206;-87
2024/02/21 07:21:27;;;;;;;7.90;5.72;;;;;;;8.45;91.29;98737.94;5139339;23;20216;-87
2024/02/21 07:23:30;;;;;;;7.43;4.90;;;;;;;8.49;90.51;98735.13;5191315;22;20177;-88
2024/02/21 07:25:33;;;;;;;8.95;6.03;;;;;;;8.55;90.79;98733.94;5164214;23;20204;-87
2024/02/21 07:27:37;;;;;;;7.03;4.93;;;;;;;8.55;91.92;98728.75;5161711;23;20223;-83
2024/02/21 07:29:40;;;;;;;8.35;5.70;;;;;;;8.56;90.40;98733.03;5163750;23;20251;-81
2024/02/21 07:31:44;;;;;;;11.75;6.60;;;;;;;8.59;89.99;98725.91;5163106;23;20212;-81
2024/02/21 07:33:47;;;;;;;9.98;5.95;;;;;;;8.67;90.75;98722.94;5139697;23;20178;-81
2024/02/21 07:35:51;;;;;;;10.85;6.63;;;;;;;8.82;90.16;98729.97;5136410;23;20693;-83
2024/02/21 07:37:55;;;;;;;11.88;6.97;;;;;;;8.95;88.97;98737.88;5137653;23;20174;-82
2024/02/21 07:39:57;;;;;;;10.07;6.80;;;;;;;9.10;89.36;98734.50;5135135;23;20189;-80
2024/02/21 07:42:01;;;;;;;10.18;6.13;;;;;;;9.20;89.92;98727.91;5161683;23;20173;-81
2024/02/21 07:44:05;;;;;;;10.65;6.03;;;;;;;9.26;89.60;98732.78;5136491;23;20593;-82
2024/02/21 07:46:08;;;;;;;10.57;6.15;;;;;;;9.31;90.38;98735.97;5163305;23;20260;-80
2024/02/21 07:48:11;;;;;;;9.80;6.03;;;;;;;9.42;89.74;98724.03;5138258;23;20269;-81
2024/02/21 07:50:14;;;;;;;10.60;5.88;;;;;;;9.55;88.83;98724.25;5163286;23;20579;-81
2024/02/21 07:52:18;;;;;;;10.93;5.83;;;;;;;9.68;87.87;98720.03;5138202;23;20202;-80
2024/02/21 07:54:23;;;;;;;7.53;5.40;;;;;;;9.76;88.29;98718.72;5192888;22;20575;-79
2024/02/21 07:56:28;;;;;;;8.60;5.93;;;;;;;9.85;87.48;98711.22;5138643;23;20688;-79
2024/02/21 07:58:31;;;;;;;12.63;5.75;;;;;;;9.93;89.22;98716.00;5138886;23;20561;-80
2024/02/21 08:00:35;;;;;;;10.50;7.82;;;;;;;10.00;87.79;98705.19;5138332;23;20178;-80
2024/02/21 08:02:39;;;;;;;10.70;7.40;;;;;;;10.14;87.94;98704.41;5138324;23;20209;-80
2024/02/21 08:04:42;;;;;;;11.15;6.45;;;;;;;10.24;87.57;98705.53;5163982;23;20179;-80
2024/02/21 08:06:48;;;;;;;9.73;7.13;;;;;;;10.27;88.24;98703.63;5158534;23;20292;-79
2024/02/21 08:08:51;;;;;;;9.13;6.70;;;;;;;10.31;88.25;98696.47;5137571;23;20163;-79
2024/02/21 08:10:56;;;;;;;9.27;6.60;;;;;;;10.34;87.60;98692.75;5137860;23;20647;-78
2024/02/21 08:12:59;;;;;;;10.57;6.40;;;;;;;10.41;88.95;98699.28;5161270;23;20227;-79
2024/02/21 08:15:04;;;;;;;10.20;6.33;;;;;;;10.45;87.84;98698.19;5137727;23;20202;-79
2024/02/21 08:17:07;;;;;;;9.40;5.60;;;;;;;10.48;88.98;98697.19;5189497;22;20618;-80
2024/02/21 08:19:12;;;;;;;11.73;7.55;;;;;;;10.55;88.19;98696.69;5137029;23;20581;-81
2024/02/21 08:21:15;;;;;;;9.77;6.40;;;;;;;10.67;87.90;98700.38;5138051;23;20619;-83
2024/02/21 08:23:19;;;;;;;12.10;5.65;;;;;;;10.74;88.53;98692.09;5161785;23;20643;-81
2024/02/21 08:25:22;;;;;;;9.53;6.40;;;;;;;10.87;88.95;98691.28;5163132;23;20187;-82
2024/02/21 08:27:27;;;;;;;10.47;6.07;;;;;;;11.04;87.80;98688.47;5188227;22;20635;-83
2024/02/21 08:29:29;;;;;;;8.77;5.20;;;;;;;11.21;87.50;98690.91;5188555;22;20620;-83
2024/02/21 08:31:33;;;;;;;12.37;5.80;;;;;;;11.39;83.28;98701.03;5162868;23;21009;-82
2024/02/21 08:33:37;;;;;;;8.83;5.00;;;;;;;11.56;82.96;98700.91;5162598;23;20584;-82
2024/02/21 08:35:41;;;;;;;10.07;4.83;;;;;;;11.71;82.31;98699.06;5162274;23;20667;-81
2024/02/21 08:37:44;;;;;;;9.77;4.50;;;;;;;11.80;80.27;98700.19;5135797;23;20589;-81
2024/02/21 08:39:48;;;;;;;8.77;4.20;;;;;;;11.87;80.88;98695.41;5138313;23;20607;-81
2024/02/21 08:41:51;;;;;;;10.60;5.13;;;;;;;11.89;80.95;98688.28;5136129;23;20627;-87
2024/02/21 08:44:01;;;;;;;10.07;5.00;;;;;;;11.92;82.42;98682.88;5136855;23;20684;-82
2024/02/21 08:46:06;;;;;;;9.37;4.17;;;;;;;11.94;81.08;98681.84;5133846;23;20727;-83
2024/02/21 08:48:09;;;;;;;7.60;3.83;;;;;;;12.00;80.45;98686.69;5138244;23;20664;-83
2024/02/21 08:50:13;;;;;;;10.00;3.63;;;;;;;12.05;80.44;98692.44;5163334;23;20576;-84
2024/02/21 08:52:30;;;;;;;4.60;3.10;;;;;;;11.95;78.31;98683.53;5163029;23;21131;-85
2024/02/21 08:54:33;;;;;;;4.60;2.60;;;;;;;11.87;77.60;98672.69;5135673;23;20592;-83
2024/02/21 08:56:37;;;;;;;6.17;3.20;;;;;;;11.82;77.99;98659.09;5161127;23;20579;-83
2024/02/21 08:58:40;;;;;;;4.60;2.93;;;;;;;11.88;78.38;98661.31;5160351;23;20619;-84
2024/02/21 09:00:45;;;;;;;5.77;2.90;;;;;;;11.89;79.48;98657.78;5160512;23;21523;-83
2024/02/21 09:02:48;;;;;;;7.17;3.27;;;;;;;11.89;78.11;98655.16;5162565;23;20591;-84
2024/02/21 09:04:52;;;;;;;10.00;3.47;;;;;;;11.87;76.90;98664.03;5163596;23;20667;-83
2024/02/21 09:06:55;;;;;;;5.27;3.23;;;;;;;11.77;76.92;98652.47;5136881;23;20609;-83
2024/02/21 09:08:58;;;;;;;5.13;2.73;;;;;;;11.78;76.62;98649.78;5138049;23;20588;-82
2024/02/21 09:11:02;;;;;;;7.30;3.40;;;;;;;11.74;75.98;98639.59;5162414;23;20588;-82
2024/02/21 09:13:07;;;;;;;9.70;2.90;;;;;;;11.71;75.47;98636.38;5189366;22;20634;-82
2024/02/21 09:15:11;;;;;;;6.50;2.93;;;;;;;11.61;77.48;98638.72;5161753;23;20550;-83
2024/02/21 09:17:17;;;;;;;8.07;2.90;;;;;;;11.57;76.14;98639.03;5162561;23;20586;-82
2024/02/21 09:19:20;;;;;;;7.33;3.40;;;;;;;11.57;76.43;98636.41;5163615;23;20607;-83
2024/02/21 09:21:23;;;;;;;6.80;3.17;;;;;;;11.59;77.38;98631.91;5137670;23;20573;-84
2024/02/21 09:23:26;;;;;;;7.80;3.17;;;;;;;11.71;77.58;98625.91;5162789;23;20627;-83
2024/02/21 09:25:31;;;;;;;7.40;3.43;;;;;;;11.81;78.57;98631.28;5161872;23;21038;-83
2024/02/21 09:27:34;;;;;;;8.23;3.70;;;;;;;11.89;76.96;98630.78;5135313;23;21003;-83
2024/02/21 09:29:39;;;;;;;10.63;4.30;;;;;;;11.85;76.80;98630.16;5161324;23;20607;-83
2024/02/21 09:31:42;;;;;;;5.83;3.10;;;;;;;11.80;76.29;98632.25;5162059;23;20637;-83
2024/02/21 09:33:47;;;;;;;7.63;3.30;;;;;;;11.82;78.66;98634.75;5137733;23;20894;-83
2024/02/21 09:35:51;;;;;;;6.30;3.50;;;;;;;11.95;78.92;98641.69;5190268;22;20563;-84
2024/02/21 09:37:54;;;;;;;7.50;3.37;;;;;;;12.04;77.42;98624.56;5162185;23;20581;-83
2024/02/21 09:39:57;;;;;;;8.00;3.10;;;;;;;12.16;77.09;98619.34;5136638;23;20601;-84
2024/02/21 09:42:07;;;;;;;9.43;3.40;;;;;;;12.27;77.81;98622.13;5137107;23;21104;-84
2024/02/21 09:44:11;;;;;;;8.43;3.80;;;;;;;12.39;77.26;98623.91;5138001;23;20573;-84